createdAt,value
2016-06-19T00:00:44.609Z,996.93
2016-06-19T00:02:44.631Z,996.93
2016-06-19T00:03:44.619Z,996.95
2016-06-19T00:04:44.654Z,996.9
2016-06-19T00:05:44.626Z,996.89
2016-06-19T00:06:44.833Z,996.91
2016-06-19T00:07:45.055Z,996.89
2016-06-19T00:08:44.651Z,996.94
2016-06-19T00:09:44.844Z,996.9
2016-06-19T00:10:44.658Z,996.92
2016-06-19T00:11:44.662Z,996.95
2016-06-19T00:12:44.666Z,996.95
2016-06-19T00:13:44.669Z,996.96
2016-06-19T00:14:45.080Z,997.03
2016-06-19T00:15:45.098Z,997.01
2016-06-19T00:16:44.898Z,997.02
2016-06-19T00:17:44.902Z,997.04
2016-06-19T00:18:44.921Z,997.05
2016-06-19T00:19:44.925Z,997.02
2016-06-19T00:20:44.726Z,997.02
2016-06-19T00:21:44.729Z,996.99
2016-06-19T00:22:45.138Z,996.97
2016-06-19T00:23:44.750Z,997
2016-06-19T00:24:44.754Z,997.01
2016-06-19T00:25:44.758Z,997.03
2016-06-19T00:26:44.761Z,997.05
2016-06-19T00:27:44.765Z,997.07
2016-06-19T00:28:44.783Z,997.08
2016-06-19T00:29:44.787Z,997.08
2016-06-19T00:30:44.807Z,997.08
2016-06-19T00:31:44.794Z,997.02
2016-06-19T00:32:44.814Z,997.06
2016-06-19T00:33:45.035Z,997.08
2016-06-19T00:34:44.836Z,997.05
2016-06-19T00:35:44.839Z,997.06
2016-06-19T00:37:44.862Z,997.04
2016-06-19T00:38:44.880Z,997.03
2016-06-19T00:39:44.853Z,996.99
2016-06-19T00:40:44.856Z,996.99
2016-06-19T00:41:44.876Z,997
2016-06-19T00:43:44.898Z,997.02
2016-06-19T00:44:44.902Z,997.03
2016-06-19T00:45:44.921Z,997.02
2016-06-19T00:46:44.924Z,997.02
2016-06-19T00:47:45.146Z,997.05
2016-06-19T00:48:44.915Z,997.02
2016-06-19T00:49:44.919Z,997.03
2016-06-19T00:50:44.922Z,997.08
2016-06-19T00:51:44.926Z,997.05
2016-06-19T00:52:44.945Z,997.05
2016-06-19T00:53:44.948Z,997.08
2016-06-19T00:54:44.967Z,997.08
2016-06-19T00:55:44.967Z,997.13
2016-06-19T00:56:44.971Z,997.12
2016-06-19T00:59:44.982Z,997.1
2016-06-19T01:00:45.188Z,997.12
2016-06-19T01:01:45.411Z,997.14
2016-06-19T01:02:45.007Z,997.14
2016-06-19T01:07:45.056Z,997.22
2016-06-19T01:08:45.449Z,997.22
2016-06-19T01:09:45.453Z,997.23
2016-06-19T01:10:45.081Z,997.25
2016-06-19T01:11:45.054Z,997.28
2016-06-19T01:12:45.058Z,997.28
2016-06-19T01:13:45.061Z,997.26
2016-06-19T01:14:45.081Z,997.25
2016-06-19T01:15:45.084Z,997.29
2016-06-19T01:16:45.072Z,997.29
2016-06-19T01:17:45.294Z,997.29
2016-06-19T01:18:45.095Z,997.26
2016-06-19T01:19:45.301Z,997.23
2016-06-19T01:20:45.101Z,997.27
2016-06-19T01:21:45.120Z,997.23
2016-06-19T01:22:45.123Z,997.21
2016-06-19T01:23:45.126Z,997.22
2016-06-19T01:24:45.146Z,997.24
2016-06-19T01:25:45.134Z,997.25
2016-06-19T01:26:45.153Z,997.28
2016-06-19T01:27:45.376Z,997.32
2016-06-19T01:28:45.175Z,997.35
2016-06-19T01:30:45.198Z,997.31
2016-06-19T01:31:45.171Z,997.32
2016-06-19T01:33:45.396Z,997.34
2016-06-19T01:34:45.400Z,997.32
2016-06-19T01:35:45.621Z,997.28
2016-06-19T01:36:45.219Z,997.33
2016-06-19T01:37:45.222Z,997.33
2016-06-19T01:38:45.225Z,997.28
2016-06-19T01:39:45.432Z,997.28
2016-06-19T01:40:45.233Z,997.26
2016-06-19T01:41:45.236Z,997.23
2016-06-19T01:42:45.255Z,997.24
2016-06-19T01:43:45.243Z,997.21
2016-06-19T01:44:45.246Z,997.23
2016-06-19T01:45:45.266Z,997.2
2016-06-19T01:46:45.269Z,997.18
2016-06-19T01:47:45.272Z,997.22
2016-06-19T01:48:45.276Z,997.24
2016-06-19T01:50:45.314Z,997.33
2016-06-19T01:51:45.333Z,997.31
2016-06-19T01:52:45.337Z,997.35
2016-06-19T01:53:45.341Z,997.36
2016-06-19T01:54:45.312Z,997.41
2016-06-19T01:55:45.741Z,997.4
2016-06-19T01:56:45.546Z,997.41
2016-06-19T01:59:45.379Z,997.37
2016-06-19T02:00:45.368Z,997.38
2016-06-19T02:01:45.373Z,997.4
2016-06-19T02:02:45.377Z,997.4
2016-06-19T02:03:45.789Z,997.38
2016-06-19T02:04:45.387Z,997.38
2016-06-19T02:05:45.391Z,997.42
2016-06-19T02:06:45.411Z,997.45
2016-06-19T02:07:45.415Z,997.46
2016-06-19T02:08:45.419Z,997.47
2016-06-19T02:11:45.664Z,997.51
2016-06-19T02:12:45.433Z,997.51
2016-06-19T02:13:45.436Z,997.58
2016-06-19T02:14:45.440Z,997.53
2016-06-19T02:15:45.459Z,997.54
2016-06-19T02:16:45.461Z,997.54
2016-06-19T02:17:45.465Z,997.58
2016-06-19T02:18:45.485Z,997.59
2016-06-19T02:19:45.489Z,997.59
2016-06-19T02:22:45.499Z,997.66
2016-06-19T02:23:45.721Z,997.64
2016-06-19T02:24:45.520Z,997.58
2016-06-19T02:26:45.544Z,997.57
2016-06-19T02:27:45.735Z,997.57
2016-06-19T02:29:45.538Z,997.59
2016-06-19T02:31:45.545Z,997.61
2016-06-19T02:32:45.752Z,997.6
2016-06-19T02:33:45.552Z,997.68
2016-06-19T02:34:45.555Z,997.61
2016-06-19T02:35:45.575Z,997.63
2016-06-19T02:36:45.578Z,997.62
2016-06-19T02:37:45.581Z,997.64
2016-06-19T02:38:45.585Z,997.67
2016-06-19T02:39:45.604Z,997.65
2016-06-19T02:40:45.607Z,997.73
2016-06-19T02:41:45.814Z,997.74
2016-06-19T02:42:45.615Z,997.73
2016-06-19T02:45:45.843Z,997.75
2016-06-19T02:46:45.628Z,997.79
2016-06-19T02:48:45.870Z,997.87
2016-06-19T02:49:45.638Z,997.83
2016-06-19T02:50:45.642Z,997.8
2016-06-19T02:51:46.052Z,997.87
2016-06-19T02:52:45.868Z,997.85
2016-06-19T02:53:45.683Z,997.81
2016-06-19T02:54:45.671Z,997.8
2016-06-19T02:55:45.675Z,997.78
2016-06-19T02:56:45.678Z,997.8
2016-06-19T02:57:45.697Z,997.8
2016-06-19T02:58:45.701Z,997.77
2016-06-19T02:59:45.705Z,997.79
2016-06-19T03:01:45.742Z,997.76
2016-06-19T03:02:45.918Z,997.82
2016-06-19T03:03:45.718Z,997.77
2016-06-19T03:04:45.722Z,997.86
2016-06-19T03:05:45.928Z,997.88
2016-06-19T03:06:45.745Z,997.91
2016-06-19T03:07:45.966Z,997.96
2016-06-19T03:08:45.736Z,997.95
2016-06-19T03:09:45.755Z,997.94
2016-06-19T03:10:45.961Z,997.94
2016-06-19T03:11:45.762Z,997.95
2016-06-19T03:12:45.968Z,997.95
2016-06-19T03:13:45.769Z,998.05
2016-06-19T03:14:45.788Z,998.08
2016-06-19T03:15:45.791Z,998.12
2016-06-19T03:16:45.779Z,998.09
2016-06-19T03:17:45.783Z,998.18
2016-06-19T03:18:45.802Z,998.19
2016-06-19T03:19:45.804Z,998.22
2016-06-19T03:20:45.808Z,998.21
2016-06-19T03:21:45.828Z,998.22
2016-06-19T03:22:46.034Z,998.23
2016-06-19T03:23:46.037Z,998.21
2016-06-19T03:24:46.072Z,998.24
2016-06-19T03:25:45.857Z,998.24
2016-06-19T03:26:45.845Z,998.27
2016-06-19T03:27:45.848Z,998.3
2016-06-19T03:28:46.071Z,998.29
2016-06-19T03:31:45.893Z,998.29
2016-06-19T03:32:45.912Z,998.32
2016-06-19T03:34:45.888Z,998.3
2016-06-19T03:35:45.891Z,998.32
2016-06-19T03:36:45.910Z,998.35
2016-06-19T03:37:45.914Z,998.36
2016-06-19T03:41:45.928Z,998.42
2016-06-19T03:42:45.962Z,998.46
2016-06-19T03:44:45.954Z,998.44
2016-06-19T03:46:46.179Z,998.43
2016-06-19T03:47:46.199Z,998.41
2016-06-19T03:48:46.389Z,998.4
2016-06-19T03:49:46.097Z,998.42
2016-06-19T03:50:46.178Z,998.47
2016-06-19T03:51:45.993Z,998.46
2016-06-19T03:52:45.996Z,998.49
2016-06-19T03:53:46.001Z,998.47
2016-06-19T03:54:46.004Z,998.51
2016-06-19T03:55:46.007Z,998.48
2016-06-19T03:56:46.011Z,998.51
2016-06-19T03:57:46.014Z,998.51
2016-06-19T03:58:46.034Z,998.54
2016-06-19T03:59:46.037Z,998.6
2016-06-19T04:00:46.041Z,998.57
2016-06-19T04:01:46.044Z,998.6
2016-06-19T04:02:46.063Z,998.64
2016-06-19T04:03:46.067Z,998.66
2016-06-19T04:04:46.070Z,998.69
2016-06-19T04:05:46.292Z,998.71
2016-06-19T04:06:46.077Z,998.75
2016-06-19T04:08:46.693Z,998.78
2016-06-19T04:10:46.106Z,998.83
2016-06-19T04:11:46.345Z,998.86
2016-06-19T04:12:46.115Z,998.89
2016-06-19T04:13:46.527Z,998.91
2016-06-19T04:14:46.125Z,998.93
2016-06-19T04:15:46.349Z,999.02
2016-06-19T04:16:46.151Z,999.03
2016-06-19T04:17:46.155Z,999.01
2016-06-19T04:18:46.175Z,999.03
2016-06-19T04:19:46.178Z,999.08
2016-06-19T04:20:46.387Z,999.07
2016-06-19T04:21:46.187Z,999.07
2016-06-19T04:22:46.190Z,999.06
2016-06-19T04:23:46.209Z,999.1
2016-06-19T04:24:46.213Z,999.11
2016-06-19T04:25:46.217Z,999.1
2016-06-19T04:26:46.220Z,999.14
2016-06-19T04:27:46.223Z,999.12
2016-06-19T04:28:46.430Z,999.09
2016-06-19T04:29:46.449Z,999.12
2016-06-19T04:30:46.468Z,999.11
2016-06-19T04:31:46.268Z,999.13
2016-06-19T04:32:46.256Z,999.22
2016-06-19T04:33:46.478Z,999.17
2016-06-19T04:34:46.279Z,999.21
2016-06-19T04:35:46.485Z,999.22
2016-06-19T04:36:46.707Z,999.2
2016-06-19T04:37:46.508Z,999.2
2016-06-19T04:41:46.335Z,999.26
2016-06-19T04:46:46.383Z,999.27
2016-06-19T04:47:46.590Z,999.22
2016-06-19T04:48:46.577Z,999.23
2016-06-19T04:49:46.627Z,999.22
2016-06-19T04:50:46.412Z,999.23
2016-06-19T04:51:46.400Z,999.21
2016-06-19T04:52:46.404Z,999.18
2016-06-19T04:53:46.407Z,999.24
2016-06-19T04:54:46.410Z,999.21
2016-06-19T04:55:46.429Z,999.23
2016-06-19T04:56:46.433Z,999.25
2016-06-19T04:57:46.436Z,999.24
2016-06-19T04:58:46.439Z,999.26
2016-06-19T04:59:46.443Z,999.27
2016-06-19T05:00:46.462Z,999.25
2016-06-19T05:01:46.466Z,999.29
2016-06-19T05:02:46.486Z,999.22
2016-06-19T05:03:46.473Z,999.27
2016-06-19T05:04:46.492Z,999.28
2016-06-19T05:05:46.496Z,999.27
2016-06-19T05:06:46.499Z,999.27
2016-06-19T05:07:46.518Z,999.31
2016-06-19T05:08:46.521Z,999.33
2016-06-19T05:09:46.524Z,999.33
2016-06-19T05:10:46.528Z,999.36
2016-06-19T05:11:46.532Z,999.33
2016-06-19T05:12:46.535Z,999.4
2016-06-19T05:13:46.554Z,999.41
2016-06-19T05:14:46.558Z,999.43
2016-06-19T05:15:46.561Z,999.38
2016-06-19T05:16:46.581Z,999.44
2016-06-19T05:17:46.584Z,999.46
2016-06-19T05:18:46.806Z,999.47
2016-06-19T05:19:46.606Z,999.44
2016-06-19T05:20:46.609Z,999.51
2016-06-19T05:21:47.019Z,999.51
2016-06-19T05:22:46.836Z,999.54
2016-06-19T05:23:46.839Z,999.58
2016-06-19T05:24:46.640Z,999.61
2016-06-19T05:25:46.643Z,999.62
2016-06-19T05:26:46.661Z,999.65
2016-06-19T05:27:46.665Z,999.64
2016-06-19T05:28:46.668Z,999.71
2016-06-19T05:29:46.688Z,999.69
2016-06-19T05:30:46.691Z,999.68
2016-06-19T05:31:46.710Z,999.68
2016-06-19T05:32:46.699Z,999.63
2016-06-19T05:33:46.717Z,999.64
2016-06-19T05:34:46.721Z,999.63
2016-06-19T05:35:46.725Z,999.59
2016-06-19T05:36:46.743Z,999.63
2016-06-19T05:37:46.747Z,999.6
2016-06-19T05:38:46.749Z,999.55
2016-06-19T05:39:46.769Z,999.59
2016-06-19T05:40:46.773Z,999.55
2016-06-19T05:41:46.777Z,999.53
2016-06-19T05:42:46.779Z,999.57
2016-06-19T05:43:46.800Z,999.58
2016-06-19T05:44:46.817Z,999.59
2016-06-19T05:45:46.806Z,999.57
2016-06-19T05:46:47.043Z,999.58
2016-06-19T05:47:46.859Z,999.57
2016-06-19T05:48:46.863Z,999.61
2016-06-19T05:49:46.865Z,999.6
2016-06-19T05:51:46.873Z,999.56
2016-06-19T05:52:46.893Z,999.61
2016-06-19T05:53:47.114Z,999.56
2016-06-19T05:54:46.900Z,999.58
2016-06-19T05:55:46.918Z,999.54
2016-06-19T05:56:46.922Z,999.58
2016-06-19T05:57:46.926Z,999.57
2016-06-19T05:58:46.929Z,999.52
2016-06-19T05:59:46.964Z,999.56
2016-06-19T06:00:46.982Z,999.6
2016-06-19T06:02:46.974Z,999.58
2016-06-19T06:03:46.993Z,999.58
2016-06-19T06:05:47.000Z,999.62
2016-06-19T06:06:47.221Z,999.57
2016-06-19T06:07:47.022Z,999.56
2016-06-19T06:08:47.026Z,999.57
2016-06-19T06:09:47.029Z,999.55
2016-06-19T06:10:47.032Z,999.52
2016-06-19T06:11:47.036Z,999.55
2016-06-19T06:12:47.056Z,999.52
2016-06-19T06:13:47.059Z,999.51
2016-06-19T06:14:47.078Z,999.53
2016-06-19T06:15:47.081Z,999.52
2016-06-19T06:16:47.288Z,999.5
2016-06-19T06:17:47.088Z,999.51
2016-06-19T06:18:47.107Z,999.55
2016-06-19T06:19:47.141Z,999.51
2016-06-19T06:20:47.130Z,999.5
2016-06-19T06:21:47.336Z,999.58
2016-06-19T06:22:47.137Z,999.57
2016-06-19T06:23:47.358Z,999.55
2016-06-19T06:24:47.409Z,999.56
2016-06-19T06:26:47.197Z,999.54
2016-06-19T06:28:47.804Z,999.56
2016-06-19T06:29:47.423Z,999.54
2016-06-19T06:30:47.230Z,999.63
2016-06-19T06:31:47.254Z,999.72
2016-06-19T06:32:47.262Z,999.75
2016-06-19T06:33:47.503Z,999.62
2016-06-19T06:34:47.321Z,999.61
2016-06-19T06:35:47.327Z,999.63
2016-06-19T06:36:47.317Z,999.62
2016-06-19T06:37:47.338Z,999.65
2016-06-19T06:38:47.342Z,999.66
2016-06-19T06:39:47.566Z,999.7
2016-06-19T06:40:47.570Z,999.7
2016-06-19T06:41:47.371Z,999.77
2016-06-19T06:42:47.376Z,999.77
2016-06-19T06:43:47.393Z,999.88
2016-06-19T06:44:47.397Z,999.92
2016-06-19T06:45:47.400Z,999.88
2016-06-19T06:46:47.405Z,999.88
2016-06-19T06:47:47.424Z,999.91
2016-06-19T06:48:47.427Z,999.85
2016-06-19T06:49:47.431Z,999.84
2016-06-19T06:50:47.450Z,999.86
2016-06-19T06:51:47.453Z,999.85
2016-06-19T06:52:47.707Z,999.86
2016-06-19T06:53:47.491Z,999.86
2016-06-19T06:54:47.495Z,999.89
2016-06-19T06:55:47.513Z,999.91
2016-06-19T06:56:47.533Z,999.88
2016-06-19T06:57:47.755Z,999.92
2016-06-19T06:58:47.571Z,999.94
2016-06-19T06:59:47.574Z,1000.03
2016-06-19T07:01:47.566Z,1000.01
2016-06-19T07:02:47.772Z,1000.03
2016-06-19T07:03:47.573Z,1000.14
2016-06-19T07:04:47.591Z,1000.22
2016-06-19T07:05:47.798Z,1000.15
2016-06-19T07:06:47.598Z,1000.33
2016-06-19T07:07:48.227Z,1000.36
2016-06-19T07:08:49.075Z,1000.27
2016-06-19T07:09:48.046Z,1000.28
2016-06-19T07:11:47.678Z,1000.22
2016-06-19T07:12:47.682Z,1000.16
2016-06-19T07:13:47.686Z,1000.13
2016-06-19T07:14:47.704Z,1000.18
2016-06-19T07:15:47.707Z,1000.26
2016-06-19T07:16:47.710Z,1000.21
2016-06-19T07:17:48.152Z,1000.17
2016-06-19T07:18:47.734Z,1000.07
2016-06-19T07:19:47.737Z,1000.06
2016-06-19T07:20:47.741Z,1000.14
2016-06-19T07:21:47.761Z,1000.37
2016-06-19T07:22:47.778Z,1000.44
2016-06-19T07:23:47.782Z,1000.27
2016-06-19T07:24:47.817Z,1000.3
2016-06-19T07:25:47.821Z,1000.29
2016-06-19T07:26:48.245Z,1000.21
2016-06-19T07:27:47.828Z,1000.17
2016-06-19T07:28:47.847Z,1000.2
2016-06-19T07:30:47.884Z,1000.24
2016-06-19T07:31:47.888Z,1000.28
2016-06-19T07:32:47.891Z,1000.24
2016-06-19T07:33:47.911Z,1000.27
2016-06-19T07:35:48.121Z,1000.32
2016-06-19T07:36:47.937Z,1000.39
2016-06-19T07:37:47.971Z,1000.45
2016-06-19T07:38:48.006Z,1000.49
2016-06-19T07:39:48.040Z,1000.45
2016-06-19T07:40:48.060Z,1000.43
2016-06-19T07:41:48.094Z,1000.3
2016-06-19T07:42:48.411Z,1000.3
2016-06-19T07:43:48.070Z,1000.25
2016-06-19T07:44:48.261Z,1000.22
2016-06-19T07:45:48.046Z,1000.3
2016-06-19T07:46:48.269Z,1000.27
2016-06-19T07:47:48.131Z,1000.23
2016-06-19T07:48:48.307Z,1000.26
2016-06-19T07:50:48.094Z,1000.58
2016-06-19T07:51:48.113Z,1000.58
2016-06-19T07:52:48.117Z,1000.68
2016-06-19T07:53:48.136Z,1000.67
2016-06-19T07:54:48.374Z,1000.57
2016-06-19T07:55:48.159Z,1000.58
2016-06-19T07:56:48.396Z,1000.61
2016-06-19T07:57:48.588Z,1000.55
2016-06-19T07:58:48.419Z,1000.57
2016-06-19T08:01:48.226Z,1000.29
2016-06-19T08:02:48.245Z,1000.26
2016-06-19T08:03:48.248Z,1000.18
2016-06-19T08:04:48.268Z,1000.17
2016-06-19T08:05:48.287Z,1000.2
2016-06-19T08:06:48.291Z,1000.17
2016-06-19T08:07:48.295Z,1000.19
2016-06-19T08:08:48.547Z,1000.17
2016-06-19T08:11:48.558Z,1000.23
2016-06-19T08:12:48.373Z,1000.24
2016-06-19T08:13:48.377Z,1000.24
2016-06-19T08:14:48.397Z,1000.24
2016-06-19T08:15:48.400Z,1000.29
2016-06-19T08:16:48.404Z,1000.31
2016-06-19T08:17:48.656Z,1000.39
2016-06-19T08:18:48.832Z,1000.38
2016-06-19T08:19:48.445Z,1000.37
2016-06-19T08:20:48.464Z,1000.32
2016-06-19T08:21:48.468Z,1000.48
2016-06-19T08:22:48.486Z,1000.6
2016-06-19T08:27:48.550Z,1000.64
2016-06-19T08:28:48.570Z,1000.69
2016-06-19T08:29:48.557Z,1000.6
2016-06-19T08:30:48.592Z,1000.61
2016-06-19T08:32:48.599Z,1000.69
2016-06-19T08:33:49.024Z,1000.67
2016-06-19T08:34:48.638Z,1000.62
2016-06-19T08:35:48.641Z,1000.56
2016-06-19T08:36:48.878Z,1000.58
2016-06-19T08:37:48.898Z,1000.52
2016-06-19T08:39:48.920Z,1000.48
2016-06-19T08:40:48.706Z,1000.48
2016-06-19T08:41:48.709Z,1000.5
2016-06-19T08:42:48.727Z,1000.51
2016-06-19T08:44:48.752Z,1000.5
2016-06-19T08:45:48.978Z,1000.53
2016-06-19T08:46:48.812Z,1000.55
2016-06-19T08:47:49.021Z,1000.65
2016-06-19T08:48:48.808Z,1000.73
2016-06-19T08:49:49.063Z,1000.87
2016-06-19T08:52:48.889Z,1000.86
2016-06-19T08:53:48.894Z,1000.77
2016-06-19T08:54:48.913Z,1000.69
2016-06-19T08:55:49.105Z,1000.69
2016-06-19T08:56:48.921Z,1000.66
2016-06-19T08:57:48.940Z,1000.63
2016-06-19T08:58:49.148Z,1000.61
2016-06-19T08:59:49.213Z,1000.59
2016-06-19T09:00:49.499Z,1000.54
2016-06-19T09:01:49.189Z,1000.55
2016-06-19T09:02:49.209Z,1000.54
2016-06-19T09:03:49.024Z,1000.56
2016-06-19T09:04:49.324Z,1000.62
2016-06-19T09:05:49.250Z,1000.7
2016-06-19T09:06:49.050Z,1000.73
2016-06-19T09:07:49.054Z,1000.68
2016-06-19T09:08:49.291Z,1000.73
2016-06-19T09:09:49.123Z,1000.74
2016-06-19T09:11:49.129Z,1000.71
2016-06-19T09:12:49.337Z,1000.67
2016-06-19T09:13:49.168Z,1000.7
2016-06-19T09:14:49.172Z,1000.69
2016-06-19T09:15:49.362Z,1000.65
2016-06-19T09:16:49.194Z,1000.63
2016-06-19T09:17:49.214Z,1000.66
2016-06-19T09:18:49.217Z,1000.67
2016-06-19T09:19:49.471Z,1000.7
2016-06-19T09:20:49.302Z,1000.63
2016-06-19T09:21:49.259Z,1000.69
2016-06-19T09:22:49.261Z,1000.68
2016-06-19T09:23:49.265Z,1000.72
2016-06-19T09:24:49.346Z,1000.71
2016-06-19T09:25:49.522Z,1000.77
2016-06-19T09:26:49.339Z,1000.75
2016-06-19T09:27:49.326Z,1000.77
2016-06-19T09:28:49.361Z,1000.76
2016-06-19T09:29:49.348Z,1000.73
2016-06-19T09:30:49.367Z,1000.62
2016-06-19T09:31:49.434Z,1000.59
2016-06-19T09:32:49.407Z,1000.6
2016-06-19T09:33:49.628Z,1000.63
2016-06-19T09:34:49.414Z,1000.67
2016-06-19T09:35:49.650Z,1000.66
2016-06-19T09:36:49.466Z,1000.69
2016-06-19T09:37:49.548Z,1000.75
2016-06-19T09:38:49.520Z,1000.72
2016-06-19T09:39:49.462Z,1000.87
2016-06-19T09:40:49.495Z,1000.89
2016-06-19T09:41:49.499Z,1000.89
2016-06-19T09:42:49.519Z,1000.87
2016-06-19T09:43:49.522Z,1000.8
2016-06-19T09:45:49.560Z,1000.69
2016-06-19T09:46:49.564Z,1000.68
2016-06-19T09:48:49.601Z,1000.63
2016-06-19T09:49:49.605Z,1000.6
2016-06-19T09:50:49.624Z,1000.66
2016-06-19T09:51:49.643Z,1000.74
2016-06-19T09:52:49.632Z,1000.66
2016-06-19T09:53:49.650Z,1000.72
2016-06-19T09:54:49.732Z,1000.75
2016-06-19T09:55:49.673Z,1000.73
2016-06-19T09:56:49.692Z,1000.78
2016-06-19T09:57:49.696Z,1000.85
2016-06-19T09:58:49.714Z,1000.85
2016-06-19T09:59:49.734Z,1000.87
2016-06-19T10:00:49.753Z,1000.88
2016-06-19T10:01:49.756Z,1000.81
2016-06-19T10:02:49.791Z,1000.75
2016-06-19T10:03:49.795Z,1000.76
2016-06-19T10:04:49.845Z,1000.69
2016-06-19T10:05:49.832Z,1000.65
2016-06-19T10:06:49.820Z,1000.61
2016-06-19T10:09:50.065Z,1000.62
2016-06-19T10:10:49.881Z,1000.64
2016-06-19T10:11:49.900Z,1000.61
2016-06-19T10:12:49.903Z,1000.64
2016-06-19T10:13:49.923Z,1000.64
2016-06-19T10:14:49.926Z,1000.67
2016-06-19T10:15:50.164Z,1000.61
2016-06-19T10:16:50.167Z,1000.58
2016-06-19T10:17:49.968Z,1000.56
2016-06-19T10:19:50.006Z,1000.55
2016-06-19T10:20:50.009Z,1000.52
2016-06-19T10:21:50.044Z,1000.53
2016-06-19T10:22:50.047Z,1000.58
2016-06-19T10:23:50.051Z,1000.6
2016-06-19T10:24:50.070Z,1000.54
2016-06-19T10:25:50.104Z,1000.53
2016-06-19T10:26:50.311Z,1000.51
2016-06-19T10:27:50.127Z,1000.55
2016-06-19T10:28:50.131Z,1000.47
2016-06-19T10:29:50.149Z,1000.44
2016-06-19T10:30:50.153Z,1000.48
2016-06-19T10:31:50.173Z,1000.53
2016-06-19T10:32:50.176Z,1000.48
2016-06-19T10:33:50.227Z,1000.53
2016-06-19T10:34:50.417Z,1000.61
2016-06-19T10:35:50.249Z,1000.64
2016-06-19T10:36:50.237Z,1000.53
2016-06-19T10:37:50.256Z,1000.5
2016-06-19T10:38:50.274Z,1000.49
2016-06-19T10:39:50.278Z,1000.51
2016-06-19T10:40:50.297Z,1000.53
2016-06-19T10:42:50.336Z,1000.49
2016-06-19T10:43:50.542Z,1000.48
2016-06-19T10:44:50.390Z,1000.53
2016-06-19T10:46:50.380Z,1000.67
2016-06-19T10:47:50.602Z,1000.74
2016-06-19T10:48:50.419Z,1000.81
2016-06-19T10:49:50.423Z,1000.82
2016-06-19T10:50:50.457Z,1000.78
2016-06-19T10:51:50.476Z,1000.72
2016-06-19T10:52:51.088Z,1000.58
2016-06-19T10:53:50.483Z,1000.48
2016-06-19T10:54:50.502Z,1000.5
2016-06-19T10:55:50.505Z,1000.45
2016-06-19T10:56:50.555Z,1000.47
2016-06-19T10:57:50.543Z,1000.58
2016-06-19T10:58:50.563Z,1000.63
2016-06-19T10:59:50.582Z,1000.64
2016-06-19T11:00:50.820Z,1000.6
2016-06-19T11:02:50.830Z,1000.62
2016-06-19T11:03:50.632Z,1000.57
2016-06-19T11:04:50.684Z,1000.62
2016-06-19T11:05:50.672Z,1000.66
2016-06-19T11:06:50.879Z,1000.72
2016-06-19T11:07:50.696Z,1000.74
2016-06-19T11:08:50.731Z,1000.69
2016-06-19T11:09:50.735Z,1000.7
2016-06-19T11:10:50.786Z,1000.6
2016-06-19T11:11:50.774Z,1000.63
2016-06-19T11:12:50.778Z,1000.62
2016-06-19T11:13:50.797Z,1000.67
2016-06-19T11:14:50.817Z,1000.72
2016-06-19T11:15:50.820Z,1000.73
2016-06-19T11:16:51.073Z,1000.74
2016-06-19T11:17:50.859Z,1000.75
2016-06-19T11:18:51.080Z,1000.71
2016-06-19T11:19:50.881Z,1000.66
2016-06-19T11:20:50.900Z,1000.67
2016-06-19T11:21:50.904Z,1000.64
2016-06-19T11:22:51.126Z,1000.66
2016-06-19T11:23:50.942Z,1000.71
2016-06-19T11:24:50.976Z,1000.69
2016-06-19T11:25:50.995Z,1000.76
2016-06-19T11:26:51.202Z,1000.82
2016-06-19T11:27:51.003Z,1000.84
2016-06-19T11:28:51.022Z,1000.87
2016-06-19T11:29:51.040Z,1000.88
2016-06-19T11:30:51.044Z,1000.82
2016-06-19T11:31:51.282Z,1000.81
2016-06-19T11:32:51.286Z,1000.8
2016-06-19T11:33:51.086Z,1000.85
2016-06-19T11:34:51.307Z,1000.78
2016-06-19T11:35:51.108Z,1000.75
2016-06-19T11:36:54.189Z,1000.74
2016-06-19T11:37:51.334Z,1000.73
2016-06-19T11:38:51.353Z,1000.73
2016-06-19T11:39:51.169Z,1000.76
2016-06-19T11:40:51.203Z,1000.76
2016-06-19T11:41:51.441Z,1000.78
2016-06-19T11:42:51.227Z,1000.76
2016-06-19T11:43:51.230Z,1000.78
2016-06-19T11:44:51.249Z,1000.78
2016-06-19T11:45:51.487Z,1000.87
2016-06-19T11:46:51.271Z,1000.84
2016-06-19T11:47:51.494Z,1000.83
2016-06-19T11:49:51.328Z,1000.81
2016-06-19T11:50:51.332Z,1000.75
2016-06-19T11:51:51.335Z,1000.76
2016-06-19T11:52:51.354Z,1000.74
2016-06-19T11:53:51.390Z,1000.76
2016-06-19T11:54:51.377Z,1000.79
2016-06-19T11:55:51.616Z,1000.76
2016-06-19T11:57:51.435Z,1000.8
2016-06-19T11:58:51.453Z,1000.84
2016-06-19T11:59:51.457Z,1000.89
2016-06-19T12:00:51.476Z,1000.9
2016-06-19T12:01:51.511Z,1000.95
2016-06-19T12:02:51.498Z,1000.92
2016-06-19T12:03:51.518Z,1000.86
2016-06-19T12:04:51.756Z,1000.81
2016-06-19T12:05:51.556Z,1000.81
2016-06-19T12:06:51.793Z,1000.83
2016-06-19T12:07:51.579Z,1000.74
2016-06-19T12:08:51.598Z,1000.67
2016-06-19T12:09:51.616Z,1000.56
2016-06-19T12:10:51.635Z,1000.53
2016-06-19T12:11:51.654Z,1000.56
2016-06-19T12:12:51.659Z,1000.58
2016-06-19T12:13:51.678Z,1000.57
2016-06-19T12:14:51.696Z,1000.5
2016-06-19T12:15:51.918Z,1000.49
2016-06-19T12:16:51.719Z,1000.42
2016-06-19T12:17:51.753Z,1000.43
2016-06-19T12:18:51.976Z,1000.39
2016-06-19T12:19:51.776Z,1000.4
2016-06-19T12:20:51.811Z,1000.38
2016-06-19T12:21:51.815Z,1000.44
2016-06-19T12:22:51.833Z,1000.37
2016-06-19T12:23:52.118Z,1000.58
2016-06-19T12:24:51.856Z,1000.69
2016-06-19T12:25:52.297Z,1000.72
2016-06-19T12:26:51.895Z,1000.64
2016-06-19T12:27:52.257Z,1000.6
2016-06-19T12:28:52.885Z,1000.53
2016-06-19T12:29:52.217Z,1000.53
2016-06-19T12:30:51.987Z,1000.55
2016-06-19T12:31:51.989Z,1000.58
2016-06-19T12:32:51.993Z,1000.53
2016-06-19T12:33:52.044Z,1000.55
2016-06-19T12:34:52.234Z,1000.53
2016-06-19T12:35:52.690Z,1000.5
2016-06-19T12:36:52.085Z,1000.47
2016-06-19T12:37:52.088Z,1000.49
2016-06-19T12:38:52.093Z,1000.5
2016-06-19T12:39:52.110Z,1000.54
2016-06-19T12:40:52.114Z,1000.56
2016-06-19T12:41:52.150Z,1000.61
2016-06-19T12:43:52.375Z,1000.63
2016-06-19T12:44:52.175Z,1000.72
2016-06-19T12:45:52.211Z,1000.71
2016-06-19T12:46:52.431Z,1000.67
2016-06-19T12:47:52.232Z,1000.71
2016-06-19T12:48:52.455Z,1000.71
2016-06-19T12:49:52.270Z,1000.69
2016-06-19T12:50:52.289Z,1000.74
2016-06-19T12:51:52.293Z,1000.78
2016-06-19T12:52:52.312Z,1000.82
2016-06-19T12:53:52.347Z,1000.73
2016-06-19T12:54:52.757Z,1000.71
2016-06-19T12:55:52.385Z,1000.64
2016-06-19T12:56:52.405Z,1000.64
2016-06-19T12:58:52.427Z,1000.59
2016-06-19T12:59:52.429Z,1000.63
2016-06-19T13:00:52.449Z,1000.59
2016-06-19T13:01:52.484Z,1000.56
2016-06-19T13:02:52.487Z,1000.57
2016-06-19T13:03:52.506Z,1000.56
2016-06-19T13:04:52.526Z,1000.46
2016-06-19T13:05:52.561Z,1000.42
2016-06-19T13:06:52.798Z,1000.39
2016-06-19T13:07:52.582Z,1000.32
2016-06-19T13:08:52.602Z,1000.3
2016-06-19T13:09:52.605Z,1000.28
2016-06-19T13:10:52.640Z,1000.29
2016-06-19T13:11:52.846Z,1000.23
2016-06-19T13:13:52.682Z,1000.19
2016-06-19T13:14:52.701Z,1000.26
2016-06-19T13:15:52.704Z,1000.24
2016-06-19T13:16:52.724Z,1000.32
2016-06-19T13:17:52.964Z,1000.46
2016-06-19T13:20:52.812Z,1000.54
2016-06-19T13:21:52.835Z,1000.51
2016-06-19T13:22:52.855Z,1000.51
2016-06-19T13:23:53.062Z,1000.44
2016-06-19T13:25:52.900Z,1000.34
2016-06-19T13:26:52.920Z,1000.29
2016-06-19T13:27:52.970Z,1000.24
2016-06-19T13:28:53.162Z,1000.25
2016-06-19T13:29:53.213Z,1000.24
2016-06-19T13:30:52.997Z,1000.23
2016-06-19T13:31:53.017Z,1000.29
2016-06-19T13:32:53.021Z,1000.25
2016-06-19T13:33:53.040Z,1000.28
2016-06-19T13:34:53.294Z,1000.29
2016-06-19T13:36:53.115Z,1000.21
2016-06-19T13:37:53.118Z,1000.15
2016-06-19T13:38:53.356Z,1000.18
2016-06-19T13:39:53.156Z,1000.15
2016-06-19T13:40:53.410Z,1000.12
2016-06-19T13:41:53.397Z,1000.11
2016-06-19T13:42:53.198Z,1000.13